Sacramento, CA (94237)

5:34 PM PST on November 22, 2014 (GMT -0800)
Land Park | Change Station
CLOSE
Current Station
Personal Weather Station
Location: Sacramento, CA
Elevation: 23 ft
Nearby Weather Stations

Elev 23 ft 38.56 °N, 121.49 °W | Updated 6 minutes ago

Partly Cloudy
Partly Cloudy
55.8 °F
Feels Like 55.8 °F
N
0.0
Wind Variable Wind from NW

Today
High -- | Low -- °F
--% Chance of Precip.
Yesterday
High -- | Low -- °F
Precip. -- in
6:55 AM 4:48 PM
New Moon, 0% visible
Pressure 30.13 in
Visibility 7.0 miles
Clouds Clear
Dew Point 56 °F
Humidity 99%
Rainfall 0.19 in
Snow Depth Not available.
UV 0 out of 12
Pollen .40 out of 12
Air Quality Not available.
Flu Activity Not available.
METAR KSAC 230053Z 13005KT 7SM CLR 14/12 A3013 RMK AO2 SLP203 T01440122

More Conditions Fewer Conditions

Pressure 30.13 in
Visibility 7.0 miles
Clouds Clear
Dew Point 56 °F
Humidity 99%
Rainfall 0.19 in
Snow Depth Not available.
UV 0 out of 12
Pollen .40 out of 12
Air Quality Not available.
Flu Activity Not available.
METAR KSAC 230053Z 13005KT 7SM CLR 14/12 A3013 RMK AO2 SLP203 T01440122

More Conditions Fewer Conditions

10-Day Weather Forecast

Almanac

Astronomy

Nov. 22, 2014 Rise Set
Actual Time
Civil Twilight
Nautical Twilight
Astronomical Twilight
Moon
Length of Visible Light
Length of Day
Tomorrow will be .
, % of the Moon is Illuminated

Today's Extremes

State Highs State Lows

Community

WunderPhotos

Upload Photos

1,772,960 photos uploaded!

WunderBlogs® & News

Nearby

Air Quality

  Air Quality AQ Index Pollutant
Not available.

Snow Depth

Station Depth Elevation

Earthquake Activity

City Distance Mag. Time & Date
Minimum magnitude displayed is 2.5.

Coastal Water Temperatures

Place Temperature

Nearby Weather Stations